createdAt,value
2022-08-07T00:02:36.166Z,100727.83
2022-08-07T00:05:04.405Z,100727.71
2022-08-07T00:07:59.778Z,100730.23
2022-08-07T00:10:30.825Z,100729.13
2022-08-07T00:13:03.145Z,100734.29
2022-08-07T00:15:46.330Z,100731.54
2022-08-07T00:18:27.590Z,100726.84
2022-08-07T00:21:01.982Z,100732.23
2022-08-07T00:23:41.066Z,100734.06
2022-08-07T00:26:49.419Z,100732.64
2022-08-07T00:29:04.730Z,100736.52
2022-08-07T00:31:38.171Z,100734.39
2022-08-07T00:34:10.069Z,100732.65
2022-08-07T00:36:43.156Z,100731.61
2022-08-07T00:39:16.717Z,100732.67
2022-08-07T00:41:53.580Z,100736.79
2022-08-07T00:44:21.891Z,100735.45
2022-08-07T00:46:53.522Z,100731.52
2022-08-07T00:49:24.941Z,100734.00
2022-08-07T00:52:12.427Z,100732.84
2022-08-07T00:54:40.724Z,100730.23
2022-08-07T00:57:09.660Z,100731.46
2022-08-07T00:59:37.184Z,100728.27
2022-08-07T01:02:28.066Z,100725.62
2022-08-07T01:04:58.590Z,100726.72
2022-08-07T01:07:29.648Z,100726.50
2022-08-07T01:10:04.232Z,100723.37
2022-08-07T01:12:32.544Z,100730.15
2022-08-07T01:15:03.776Z,100728.61
2022-08-07T01:17:34.518Z,100727.68
2022-08-07T01:20:09.642Z,100723.52
2022-08-07T01:22:37.975Z,100725.42
2022-08-07T01:25:39.921Z,100727.03
2022-08-07T01:28:02.976Z,100723.81
2022-08-07T01:30:31.822Z,100720.16
2022-08-07T01:33:04.944Z,100720.44
2022-08-07T01:35:53.273Z,100715.95
2022-08-07T01:38:32.291Z,100716.35
2022-08-07T01:41:06.431Z,100712.94
2022-08-07T01:43:38.550Z,100708.47
2022-08-07T01:46:28.113Z,100709.75
2022-08-07T01:49:03.931Z,100715.45
2022-08-07T01:52:04.277Z,100710.94
2022-08-07T01:54:32.616Z,100714.10
2022-08-07T01:57:24.310Z,100711.63
2022-08-07T02:00:03.106Z,100710.75
2022-08-07T02:03:12.125Z,100714.36
2022-08-07T02:05:47.669Z,100712.05
2022-08-07T02:08:23.663Z,100711.13
2022-08-07T02:10:55.475Z,100715.07
2022-08-07T02:13:57.512Z,100713.95
2022-08-07T02:16:17.874Z,100713.64
2022-08-07T02:18:48.468Z,100713.25
2022-08-07T02:21:22.654Z,100716.41
2022-08-07T02:23:50.383Z,100720.14
2022-08-07T02:26:33.122Z,100717.50
2022-08-07T02:29:06.677Z,100713.02
2022-08-07T02:31:41.656Z,100720.30
2022-08-07T02:34:11.082Z,100718.98
2022-08-07T02:36:40.003Z,100722.54
2022-08-07T02:39:17.464Z,100723.19
2022-08-07T02:42:10.111Z,100720.77
2022-08-07T02:44:47.921Z,100725.23
2022-08-07T02:47:23.526Z,100726.88
2022-08-07T02:49:59.634Z,100728.15
2022-08-07T02:52:38.592Z,100730.01
2022-08-07T02:55:28.751Z,100733.17
2022-08-07T02:58:34.680Z,100732.48
2022-08-07T03:01:03.749Z,100734.59
2022-08-07T03:03:42.158Z,100735.05
2022-08-07T03:06:25.590Z,100738.52
2022-08-07T03:09:05.170Z,100739.54
2022-08-07T03:11:38.939Z,100735.98
2022-08-07T03:14:23.068Z,100734.11
2022-08-07T03:16:52.830Z,100733.34
2022-08-07T03:19:20.801Z,100729.59
2022-08-07T03:21:51.113Z,100733.73
2022-08-07T03:24:26.919Z,100736.17
2022-08-07T03:27:03.215Z,100733.36
2022-08-07T03:29:49.305Z,100734.09
2022-08-07T03:32:30.922Z,100731.06
2022-08-07T03:35:16.625Z,100732.41
2022-08-07T03:38:01.997Z,100733.17
2022-08-07T03:40:36.179Z,100733.30
2022-08-07T03:43:05.202Z,100737.90
2022-08-07T03:45:43.468Z,100729.57
2022-08-07T03:48:25.931Z,100727.97
2022-08-07T03:50:57.576Z,100729.05
2022-08-07T03:53:50.205Z,100728.78
2022-08-07T03:56:32.712Z,100729.45
2022-08-07T03:59:08.923Z,100728.31
2022-08-07T04:01:47.757Z,100730.34
2022-08-07T04:04:19.855Z,100730.36
2022-08-07T04:06:51.634Z,100731.46
2022-08-07T04:09:23.550Z,100733.61
2022-08-07T04:12:26.287Z,100735.07
2022-08-07T04:14:43.586Z,100736.70
2022-08-07T04:17:20.477Z,100736.77
2022-08-07T04:19:54.026Z,100736.36
2022-08-07T04:22:28.995Z,100737.27
2022-08-07T04:25:01.640Z,100738.66
2022-08-07T04:27:35.617Z,100737.23
2022-08-07T04:30:11.903Z,100738.70
2022-08-07T04:32:44.832Z,100735.41
2022-08-07T04:35:15.382Z,100735.42
2022-08-07T04:38:01.360Z,100734.52
2022-08-07T04:40:32.342Z,100736.27
2022-08-07T04:43:01.973Z,100734.52
2022-08-07T04:46:29.274Z,100734.30
2022-08-07T04:49:17.943Z,100739.27
2022-08-07T04:52:04.304Z,100740.52
2022-08-07T04:54:58.432Z,100737.95
2022-08-07T04:58:14.587Z,100741.10
2022-08-07T05:00:47.391Z,100746.94
2022-08-07T05:03:38.694Z,100746.08
2022-08-07T05:06:43.392Z,100744.13
2022-08-07T05:09:28.045Z,100747.00
2022-08-07T05:12:26.531Z,100745.02
2022-08-07T05:15:15.563Z,100751.30
2022-08-07T05:17:58.375Z,100752.68
2022-08-07T05:20:38.785Z,100751.79
2022-08-07T05:23:15.517Z,100754.73
2022-08-07T05:26:13.805Z,100758.84
2022-08-07T05:28:36.665Z,100755.25
2022-08-07T05:31:16.674Z,100757.83
2022-08-07T05:34:01.527Z,100757.80
2022-08-07T05:36:35.785Z,100759.95
2022-08-07T05:40:05.659Z,100758.02
2022-08-07T05:42:01.550Z,100754.20
2022-08-07T05:44:34.940Z,100755.01
2022-08-07T05:47:18.225Z,100758.70
2022-08-07T05:49:50.403Z,100759.48
2022-08-07T05:52:19.979Z,100758.56
2022-08-07T05:54:55.843Z,100762.23
2022-08-07T05:57:37.219Z,100764.35
2022-08-07T06:00:16.152Z,100763.80
2022-08-07T06:03:53.983Z,100766.23
2022-08-07T06:06:47.622Z,100767.55
2022-08-07T06:10:05.300Z,100765.66
2022-08-07T06:12:35.032Z,100764.85
2022-08-07T06:15:05.193Z,100766.16
2022-08-07T06:17:38.138Z,100763.28
2022-08-07T06:20:49.997Z,100763.25
2022-08-07T06:23:24.996Z,100762.02
2022-08-07T06:26:13.661Z,100758.90
2022-08-07T06:28:59.444Z,100758.53
2022-08-07T06:31:47.124Z,100760.92
2022-08-07T06:34:19.638Z,100765.27
2022-08-07T06:36:55.000Z,100765.95
2022-08-07T06:40:13.564Z,100767.88
2022-08-07T06:42:32.988Z,100770.69
2022-08-07T06:45:21.204Z,100773.58
2022-08-07T06:48:11.554Z,100779.09
2022-08-07T06:50:55.899Z,100778.14
2022-08-07T06:55:27.501Z,100777.35
2022-08-07T06:56:16.148Z,100778.48
2022-08-07T07:00:11.415Z,100781.02
2022-08-07T07:01:51.062Z,100778.83
2022-08-07T07:04:58.957Z,100774.39
2022-08-07T07:08:00.388Z,100773.86
2022-08-07T07:10:15.230Z,100779.33
2022-08-07T07:12:53.761Z,100782.61
2022-08-07T07:15:26.362Z,100780.42
2022-08-07T07:18:33.085Z,100776.70
2022-08-07T07:21:21.850Z,100782.41
2022-08-07T07:24:14.020Z,100781.82
2022-08-07T07:26:52.351Z,100777.62
2022-08-07T07:29:56.761Z,100772.71
2022-08-07T07:32:14.109Z,100771.16
2022-08-07T07:34:55.364Z,100774.86
2022-08-07T07:37:49.400Z,100769.23
2022-08-07T07:40:19.616Z,100765.41
2022-08-07T07:42:54.340Z,100767.39
2022-08-07T07:46:37.691Z,100761.39
2022-08-07T07:48:24.113Z,100761.25
2022-08-07T07:51:10.237Z,100759.63
2022-08-07T07:53:53.831Z,100757.70
2022-08-07T07:56:31.355Z,100753.67
2022-08-07T07:59:06.091Z,100755.73
2022-08-07T08:02:04.061Z,100753.79
2022-08-07T08:04:30.300Z,100751.58
2022-08-07T08:07:00.640Z,100750.55
2022-08-07T08:09:33.372Z,100743.59
2022-08-07T08:12:52.488Z,100742.79
2022-08-07T08:15:15.230Z,100739.61
2022-08-07T08:18:17.442Z,100748.86
2022-08-07T08:20:58.027Z,100738.42
2022-08-07T08:23:52.675Z,100738.80
2022-08-07T08:26:42.999Z,100737.81
2022-08-07T08:29:19.005Z,100739.51
2022-08-07T08:31:59.024Z,100737.83
2022-08-07T08:34:47.326Z,100736.40
2022-08-07T08:38:00.295Z,100737.89
2022-08-07T08:40:16.307Z,100735.19
2022-08-07T08:43:19.960Z,100734.48
2022-08-07T08:46:02.793Z,100740.95
2022-08-07T08:49:18.718Z,100742.98
2022-08-07T08:52:13.942Z,100735.98
2022-08-07T08:55:04.644Z,100735.60
2022-08-07T08:58:25.062Z,100732.04
2022-08-07T09:01:15.216Z,100732.55
2022-08-07T09:04:13.520Z,100734.77
2022-08-07T09:07:46.463Z,100734.20
2022-08-07T09:10:44.492Z,100733.24
2022-08-07T09:13:39.012Z,100731.31
2022-08-07T09:16:30.614Z,100732.39
2022-08-07T09:19:50.981Z,100726.13
2022-08-07T09:24:33.899Z,100726.27
2022-08-07T09:25:53.460Z,100722.70
2022-08-07T09:30:02.067Z,100721.46
2022-08-07T09:32:01.772Z,100719.40
2022-08-07T09:34:54.691Z,100715.12
2022-08-07T09:37:48.262Z,100711.05
2022-08-07T09:40:44.187Z,100710.58
2022-08-07T09:44:06.264Z,100715.10
2022-08-07T09:48:00.313Z,100708.90
2022-08-07T09:50:47.351Z,100704.09
2022-08-07T09:53:24.423Z,100701.98
2022-08-07T09:56:05.356Z,100698.71
2022-08-07T09:58:51.221Z,100694.54
2022-08-07T10:01:50.997Z,100695.95
2022-08-07T10:04:33.077Z,100695.88
2022-08-07T10:07:52.870Z,100690.11
2022-08-07T10:10:28.337Z,100687.96
2022-08-07T10:13:54.878Z,100688.61
2022-08-07T10:16:29.910Z,100687.09
2022-08-07T10:19:11.241Z,100683.96
2022-08-07T10:22:15.553Z,100679.60
2022-08-07T10:25:02.578Z,100680.83
2022-08-07T10:27:51.153Z,100674.69
2022-08-07T10:30:53.093Z,100676.05
2022-08-07T10:34:06.797Z,100672.52
2022-08-07T10:36:40.155Z,100668.77
2022-08-07T10:39:41.507Z,100665.63
2022-08-07T10:42:41.885Z,100661.61
2022-08-07T10:45:45.056Z,100653.41
2022-08-07T10:48:25.061Z,100646.46
2022-08-07T10:52:01.686Z,100635.30
2022-08-07T10:54:37.804Z,100627.13
2022-08-07T10:57:34.285Z,100621.59
2022-08-07T11:00:39.271Z,100618.70
2022-08-07T11:03:16.890Z,100620.30
2022-08-07T11:05:57.776Z,100624.14
2022-08-07T11:08:38.985Z,100621.42
2022-08-07T11:11:20.974Z,100623.30
2022-08-07T11:14:45.254Z,100628.12
2022-08-07T11:17:07.401Z,100622.63
2022-08-07T11:19:35.927Z,100618.32
2022-08-07T11:22:26.657Z,100615.58
2022-08-07T11:25:16.210Z,100612.74
2022-08-07T11:28:03.138Z,100611.79
2022-08-07T11:30:54.520Z,100611.42
2022-08-07T11:33:59.123Z,100603.71
2022-08-07T11:36:46.449Z,100590.55
2022-08-07T11:40:00.005Z,100588.73
2022-08-07T11:42:46.950Z,100582.46
2022-08-07T11:45:49.909Z,100588.41
2022-08-07T11:49:50.804Z,100584.80
2022-08-07T11:52:03.972Z,100583.11
2022-08-07T11:55:00.113Z,100580.03
2022-08-07T11:58:00.293Z,100578.38
2022-08-07T12:00:39.971Z,100572.55
2022-08-07T12:03:41.888Z,100571.08
2022-08-07T12:06:37.482Z,100573.73
2022-08-07T12:09:24.390Z,100569.67
2022-08-07T12:12:12.041Z,100569.55
2022-08-07T12:14:55.642Z,100564.13
2022-08-07T12:18:11.416Z,100562.83
2022-08-07T12:21:04.885Z,100568.58
2022-08-07T12:24:07.030Z,100563.14
2022-08-07T12:26:58.931Z,100558.09
2022-08-07T12:30:00.147Z,100554.35
2022-08-07T12:32:50.205Z,100550.89
2022-08-07T12:35:29.366Z,100546.23
2022-08-07T12:38:09.313Z,100539.23
2022-08-07T12:40:47.522Z,100532.45
2022-08-07T12:44:01.735Z,100527.52
2022-08-07T12:46:25.985Z,100525.29
2022-08-07T12:49:10.208Z,100524.90
2022-08-07T12:52:13.664Z,100522.41
2022-08-07T12:54:54.628Z,100519.02
2022-08-07T12:57:39.322Z,100519.73
2022-08-07T13:00:31.291Z,100514.85
2022-08-07T13:03:13.117Z,100518.48
2022-08-07T13:06:16.991Z,100523.69
2022-08-07T13:10:20.931Z,100515.95
2022-08-07T13:12:40.264Z,100510.77
2022-08-07T13:15:23.559Z,100509.57
2022-08-07T13:18:28.242Z,100503.59
2022-08-07T13:21:50.539Z,100498.05
2022-08-07T13:25:02.505Z,100496.61
2022-08-07T13:28:11.459Z,100491.37
2022-08-07T13:30:40.254Z,100482.40
2022-08-07T13:34:31.955Z,100481.55
2022-08-07T13:37:19.810Z,100471.89
2022-08-07T13:40:35.882Z,100467.44
2022-08-07T13:43:16.868Z,100461.70
2022-08-07T13:46:11.831Z,100458.54
2022-08-07T13:48:59.349Z,100457.27
2022-08-07T13:52:05.616Z,100455.36
2022-08-07T13:54:33.457Z,100455.94
2022-08-07T13:57:14.471Z,100457.58
2022-08-07T13:59:56.539Z,100456.17
2022-08-07T14:02:39.826Z,100450.64
2022-08-07T14:05:24.610Z,100449.42
2022-08-07T14:08:12.178Z,100449.91
2022-08-07T14:10:44.778Z,100448.17
2022-08-07T14:13:36.946Z,100444.20
2022-08-07T14:16:19.484Z,100448.79
2022-08-07T14:18:57.645Z,100447.48
2022-08-07T14:22:02.444Z,100447.85
2022-08-07T14:24:29.206Z,100444.64
2022-08-07T14:28:09.970Z,100443.48
2022-08-07T14:30:11.984Z,100437.11
2022-08-07T14:32:59.562Z,100436.41
2022-08-07T14:35:43.407Z,100431.90
2022-08-07T14:38:33.595Z,100432.25
2022-08-07T14:41:20.697Z,100428.61
2022-08-07T14:44:20.827Z,100425.73
2022-08-07T14:50:27.628Z,100414.00
2022-08-07T14:53:07.417Z,100411.95
2022-08-07T14:55:55.323Z,100409.16
2022-08-07T15:01:42.380Z,100412.81
2022-08-07T15:04:25.857Z,100414.85
2022-08-07T15:07:17.676Z,100411.35
2022-08-07T15:09:59.743Z,100409.28
2022-08-07T15:12:41.964Z,100404.96
2022-08-07T15:15:53.465Z,100406.77
2022-08-07T15:18:41.744Z,100404.36
2022-08-07T15:21:58.623Z,100407.11
2022-08-07T15:25:14.758Z,100407.16
2022-08-07T15:27:35.890Z,100408.21
2022-08-07T15:30:16.491Z,100400.83
2022-08-07T15:36:05.102Z,100401.63
2022-08-07T15:38:51.491Z,100402.89
2022-08-07T15:42:43.993Z,100402.73
2022-08-07T15:44:25.887Z,100404.63
2022-08-07T15:47:03.437Z,100402.05
2022-08-07T15:50:04.108Z,100401.70
2022-08-07T15:52:36.192Z,100396.60
2022-08-07T15:55:12.883Z,100398.86
2022-08-07T15:57:48.772Z,100397.36
2022-08-07T16:00:33.604Z,100389.90
2022-08-07T16:03:20.520Z,100392.36
2022-08-07T16:05:55.419Z,100391.36
2022-08-07T16:08:31.178Z,100386.77
2022-08-07T16:11:26.310Z,100384.46
2022-08-07T16:14:03.429Z,100379.44
2022-08-07T16:17:16.074Z,100378.15
2022-08-07T16:20:33.826Z,100376.01
2022-08-07T16:23:55.111Z,100378.04
2022-08-07T16:26:16.859Z,100373.63
2022-08-07T16:30:10.830Z,100371.54
2022-08-07T16:32:38.297Z,100370.92
2022-08-07T16:35:51.701Z,100366.71
2022-08-07T16:38:57.499Z,100366.52
2022-08-07T16:42:06.867Z,100365.17
2022-08-07T16:45:15.556Z,100361.21
2022-08-07T16:48:13.560Z,100361.81
2022-08-07T16:52:01.371Z,100359.95
2022-08-07T16:54:21.398Z,100359.92
2022-08-07T16:58:01.618Z,100359.48
2022-08-07T17:01:09.756Z,100357.98
2022-08-07T17:04:24.936Z,100353.49
2022-08-07T17:07:10.022Z,100358.11
2022-08-07T17:10:05.147Z,100354.98
2022-08-07T17:13:01.057Z,100356.60
2022-08-07T17:15:51.715Z,100355.97
2022-08-07T17:18:51.702Z,100357.96
2022-08-07T17:21:26.668Z,100359.55
2022-08-07T17:24:37.777Z,100361.56
2022-08-07T17:27:19.635Z,100365.33
2022-08-07T17:30:15.974Z,100366.02
2022-08-07T17:34:15.025Z,100364.30
2022-08-07T17:36:57.845Z,100366.20
2022-08-07T17:39:52.980Z,100366.98
2022-08-07T17:42:58.703Z,100369.42
2022-08-07T17:45:50.771Z,100369.68
2022-08-07T17:48:42.737Z,100371.05
2022-08-07T17:52:00.445Z,100369.05
2022-08-07T17:54:53.598Z,100370.71
2022-08-07T17:57:56.665Z,100370.18
2022-08-07T18:00:48.447Z,100369.38
2022-08-07T18:04:04.576Z,100373.00
2022-08-07T18:06:38.613Z,100370.55
2022-08-07T18:10:05.985Z,100372.20
2022-08-07T18:13:23.244Z,100369.02
2022-08-07T18:16:00.074Z,100368.33
2022-08-07T18:21:01.200Z,100376.57
2022-08-07T18:21:51.398Z,100376.52
2022-08-07T18:24:51.271Z,100373.90
2022-08-07T18:28:12.425Z,100377.77
2022-08-07T18:31:50.080Z,100382.58
2022-08-07T18:34:53.232Z,100383.48
2022-08-07T18:38:56.753Z,100383.95
2022-08-07T18:41:44.978Z,100388.42
2022-08-07T18:45:43.689Z,100389.08
2022-08-07T18:48:01.345Z,100395.05
2022-08-07T18:52:33.514Z,100396.93
2022-08-07T18:54:30.522Z,100398.69
2022-08-07T18:57:40.270Z,100407.73
2022-08-07T19:00:32.643Z,100412.05
2022-08-07T19:03:56.742Z,100412.27
2022-08-07T19:07:34.482Z,100416.63
2022-08-07T19:10:21.354Z,100416.83
2022-08-07T19:13:11.834Z,100418.07
2022-08-07T19:16:05.878Z,100418.70
2022-08-07T19:18:52.158Z,100422.20
2022-08-07T19:21:56.179Z,100422.51
2022-08-07T19:24:51.159Z,100427.02
2022-08-07T19:28:56.836Z,100426.36
2022-08-07T19:31:00.551Z,100431.89
2022-08-07T19:33:34.650Z,100431.63
2022-08-07T19:36:03.780Z,100435.06
2022-08-07T19:38:53.143Z,100436.91
2022-08-07T19:41:39.325Z,100442.10
2022-08-07T19:44:21.786Z,100444.80
2022-08-07T19:46:57.740Z,100443.20
2022-08-07T19:49:57.459Z,100446.95
2022-08-07T19:52:35.357Z,100446.81
2022-08-07T19:55:11.035Z,100443.08
2022-08-07T19:58:00.891Z,100444.81
2022-08-07T20:00:55.413Z,100446.10
2022-08-07T20:03:44.392Z,100448.52
2022-08-07T20:06:28.562Z,100452.38
2022-08-07T20:10:35.919Z,100450.08
2022-08-07T20:12:34.606Z,100451.58
2022-08-07T20:15:22.362Z,100454.17
2022-08-07T20:18:01.722Z,100457.14
2022-08-07T20:20:34.048Z,100453.05
2022-08-07T20:23:32.790Z,100453.14
2022-08-07T20:26:38.636Z,100457.38
2022-08-07T20:29:48.243Z,100455.95
2022-08-07T20:32:27.577Z,100456.90
2022-08-07T20:35:13.081Z,100461.27
2022-08-07T20:37:59.469Z,100458.27
2022-08-07T20:40:51.512Z,100459.19
2022-08-07T20:43:36.472Z,100458.86
2022-08-07T20:46:25.959Z,100463.23
2022-08-07T20:49:58.115Z,100463.56
2022-08-07T20:52:50.276Z,100463.16
2022-08-07T20:55:36.421Z,100463.52
2022-08-07T20:59:02.921Z,100464.86
2022-08-07T21:02:58.994Z,100461.51
2022-08-07T21:06:37.404Z,100465.20
2022-08-07T21:10:00.242Z,100466.93
2022-08-07T21:16:56.559Z,100463.28
2022-08-07T21:20:29.687Z,100463.52
2022-08-07T21:23:50.332Z,100465.20
2022-08-07T21:27:40.118Z,100462.30
2022-08-07T21:30:44.223Z,100463.32
2022-08-07T21:33:41.219Z,100463.80
2022-08-07T21:36:31.734Z,100467.05
2022-08-07T21:40:06.013Z,100469.46
2022-08-07T21:42:56.510Z,100471.48
2022-08-07T21:46:07.960Z,100472.66
2022-08-07T21:48:57.415Z,100474.09
2022-08-07T21:51:27.935Z,100473.58
2022-08-07T21:54:38.951Z,100470.31
2022-08-07T21:57:58.150Z,100472.96
2022-08-07T22:00:32.073Z,100476.11
2022-08-07T22:03:31.759Z,100469.81
2022-08-07T22:06:06.513Z,100472.81
2022-08-07T22:08:49.437Z,100472.71
2022-08-07T22:11:21.877Z,100473.61
2022-08-07T22:14:05.238Z,100478.39
2022-08-07T22:16:49.278Z,100477.61
2022-08-07T22:19:23.494Z,100478.88
2022-08-07T22:22:20.717Z,100476.85
2022-08-07T22:25:10.228Z,100484.27
2022-08-07T22:28:29.724Z,100481.53
2022-08-07T22:31:04.923Z,100482.02
2022-08-07T22:33:57.038Z,100477.21
2022-08-07T22:36:52.985Z,100479.23
2022-08-07T22:39:53.130Z,100475.09
2022-08-07T22:42:29.631Z,100478.52
2022-08-07T22:45:02.514Z,100477.70
2022-08-07T22:47:39.573Z,100479.20
2022-08-07T22:50:29.150Z,100482.84
2022-08-07T22:54:07.527Z,100487.05
2022-08-07T22:56:58.058Z,100488.25
2022-08-07T22:59:49.832Z,100491.73
2022-08-07T23:02:39.306Z,100493.64
2022-08-07T23:06:09.841Z,100490.70
2022-08-07T23:08:30.084Z,100488.85
2022-08-07T23:11:26.806Z,100487.12
2022-08-07T23:14:15.071Z,100487.39
2022-08-07T23:16:55.295Z,100488.96
2022-08-07T23:20:18.158Z,100490.56
2022-08-07T23:24:04.299Z,100492.39
2022-08-07T23:26:19.759Z,100495.56
2022-08-07T23:30:35.365Z,100498.95
2022-08-07T23:34:21.349Z,100499.94
2022-08-07T23:36:02.242Z,100493.51
2022-08-07T23:39:09.389Z,100496.55
2022-08-07T23:42:05.569Z,100493.18
2022-08-07T23:44:54.373Z,100492.63
2022-08-07T23:47:50.071Z,100493.90
2022-08-07T23:50:36.748Z,100494.08
2022-08-07T23:53:45.944Z,100493.94
2022-08-07T23:56:54.123Z,100493.94
